Terminal Aerodrome Forecast
Issued by NWS

Home | Current Version | Previous Version | Text Only | Print | Product List | Glossary On
Versions: 1 2 3 4 5 6 7 8 9 10 11 12 13
000
FTUS45 KABQ 201700
TAFGUP
TAF
KGUP 201736Z 2018/2118 VRB05KT P6SM FEW100
     FM202100 08010KT P6SM VCSH BKN100
     FM210300 11008KT P6SM SCT150
     FM210700 VRB05KT P6SM SCT120=

USA.gov is the U.S. government's official web portal to all federal, state and local government web resources and services.